• Join FlightAware (Why Join?)
  • Login
  • US Flag 
05:44AM EDT


 

Airport Tracker/Info


-or-


 

Live Flight TrackerFlight Track Log ✈ UCA3597 ✈ 02-Oct-2013 ✈ KIAD - KBGM

Flight Track Log - Related Links

Times and Time Zones

All times are in EDT time to prevent confusion due to time zone crossing. See the UCA3597 flight status page for this flight to view local times or setup timezone preferences in your user account.

Time Position Orientation Groundspeed Altitude Reporting Facility
EDT Latitude Longitude Course Direction KTS MPH feet Rate Location/Type
05:40PM 39.3047 -77.3050 19° North  Level Estimated
05:41PM 39.3643 -77.2790 19° North  Level Estimated
05:42PM 39.4238 -77.2530 19° North  Level Estimated
05:43PM 39.4833 -77.2269 19° North  Level Estimated
05:44PM 39.5428 -77.2008 19° North  Level Estimated
05:45PM 39.6023 -77.1747 19° North  Level Estimated
05:46PM 39.6618 -77.1485 19° North  Level Estimated
05:47PM 39.7213 -77.1222 19° North  Level Estimated
05:48PM 39.7808 -77.0959 19° North  Level Estimated
05:49PM 39.8402 -77.0696 19° North  Level Estimated
05:50PM 39.8997 -77.0432 19° North  Level Estimated
05:51PM 39.9592 -77.0168 19° North  Level Estimated
05:52PM 40.0186 -76.9903 19° North  Level Estimated
05:53PM 40.0781 -76.9638 19° North  Level Estimated
05:54PM 40.1375 -76.9372 19° North  Level Estimated
05:55PM 40.1970 -76.9106 19° North  Level Estimated
05:56PM 40.2564 -76.8840 19° North  Level Estimated
05:57PM 40.3158 -76.8572 19° North  Level Estimated
05:58PM 40.3753 -76.8305 19° North  Level Estimated
05:59PM 40.4347 -76.8037 19° North  Level Estimated
06:00PM 40.4941 -76.7768 19° North  Level Estimated
06:01PM 40.5535 -76.7500 19° North  Level Estimated
06:02PM 40.6129 -76.7230 19° North  Level Estimated
06:03PM 40.6723 -76.6960 19° North  Level Estimated
06:04PM 40.7317 -76.6690 19° North  Level Estimated
06:05PM 40.7911 -76.6419 19° North  Level Estimated
06:06PM 40.8504 -76.6148 19° North  Level Estimated
06:07PM 40.9098 -76.5876 19° North  Level Estimated
06:08PM 40.9692 -76.5603 19° North  Level Estimated
06:09PM 41.0285 -76.5331 19° North  Level Estimated
06:10PM 41.0879 -76.5057 19° North  Level Estimated
06:11PM 41.1472 -76.4784 19° North  Level Estimated
06:12PM 41.2066 -76.4509 19° North  Level Estimated
06:13PM 41.2659 -76.4234 19° North  Level Estimated
06:14PM 41.3252 -76.3959 19° North  Level Estimated
06:15PM 41.3845 -76.3683 19° North  Level Estimated
06:16PM 41.4438 -76.3407 19° North  Level Estimated
06:17PM 41.5031 -76.3130 19° North  Level Estimated
06:18PM 41.5624 -76.2853 19° North  Level Estimated
06:19PM 41.6217 -76.2575 19° North  Level Estimated
06:20PM 41.6810 -76.2297 19° North  Level Estimated
06:21PM 41.7403 -76.2018 19° North  Level Estimated
06:22PM 41.7996 -76.1739 19° North  Level Estimated
06:23PM 41.8588 -76.1459 19° North  Level Estimated
06:24PM 41.9181 -76.1178 19° North  Level Estimated
06:25PM 41.9773 -76.0897 19° North  Level Estimated
06:26PM 42.0366 -76.0616 19° North  Level Estimated
06:27PM 42.0958 -76.0334 19° North  Level Estimated
06:28PM 42.1550 -76.0051 19° North  Level Estimated
06:29PM 42.2084 -75.9796 19° North  Level Estimated
06:30PM 42.2084 -75.9796 35° Northeast  Level Estimated
06:31PM 42.2084 -75.9796 35° Northeast  Level Estimated
06:32PM 42.2084 -75.9796 35° Northeast  Level Estimated
06:33PM 42.2084 -75.9796 35° Northeast  Level Estimated
06:34PM 42.2084 -75.9796 35° Northeast  Level Estimated
06:35PM 42.2084 -75.9796 35° Northeast  Level Estimated
06:36PM 42.2084 -75.9796 35° Northeast  Level Estimated
06:37PM 42.2084 -75.9796 35° Northeast  Level Estimated
06:38PM 42.2084 -75.9796 35° Northeast  Level Estimated
06:39PM 42.2084 -75.9796 35° Northeast  Level Estimated
06:40PM 42.2084 -75.9796 35° Northeast  Level Estimated
06:41PM 42.2084 -75.9796 35° Northeast  Level Estimated
06:42PM 42.2084 -75.9796 35° Northeast  Level Estimated
06:43PM 42.2084 -75.9796 35° Northeast  Level Estimated
06:44PM 42.2084 -75.9796 35° Northeast  Level Estimated
06:45PM 42.2084 -75.9796 35° Northeast  Level Estimated